Terminal Aerodrome Forecast
Issued by NWS

Home | Current Version | Previous Version | Text Only | Print | Product List | Glossary On
Versions: 1 2 3 4 5 6 7 8 9 10 11 12 13 14 15 16
597
FTUS42 KJAX 270524
TAFCRG
TAF
KCRG 270524Z 2706/2806 14010KT P6SM VCSH SCT020 OVC200
      TEMPO 2706/2710 BKN020
     FM271100 09010KT 6SM -RA BKN025 OVC050
     FM271500 11014KT 3SM SHRA VCTS BKN015 OVC030CB
     FM280000 14013KT P6SM OVC025=

USA.gov is the U.S. government's official web portal to all federal, state and local government web resources and services.